createdAt,value
2022-11-01T00:01:58.055Z,100.00
2022-11-01T00:04:25.024Z,100.00
2022-11-01T00:06:51.594Z,100.00
2022-11-01T00:09:18.493Z,100.00
2022-11-01T00:11:46.230Z,100.00
2022-11-01T00:14:14.144Z,100.00
2022-11-01T00:16:40.723Z,100.00
2022-11-01T00:19:07.207Z,100.00
2022-11-01T00:21:33.734Z,100.00
2022-11-01T00:24:00.202Z,100.00
2022-11-01T00:26:26.777Z,100.00
2022-11-01T00:28:54.055Z,100.00
2022-11-01T00:31:21.234Z,100.00
2022-11-01T00:33:47.886Z,100.00
2022-11-01T00:36:14.869Z,100.00
2022-11-01T00:38:41.573Z,100.00
2022-11-01T00:41:08.483Z,100.00
2022-11-01T00:43:36.456Z,100.00
2022-11-01T00:46:04.369Z,100.00
2022-11-01T00:48:31.442Z,100.00
2022-11-01T00:50:58.037Z,100.00
2022-11-01T00:53:24.557Z,100.00
2022-11-01T00:55:51.048Z,100.00
2022-11-01T00:58:17.750Z,100.00
2022-11-01T01:00:44.314Z,100.00
2022-11-01T01:03:10.909Z,100.00
2022-11-01T01:05:37.382Z,100.00
2022-11-01T01:08:04.248Z,100.00
2022-11-01T01:10:30.955Z,100.00
2022-11-01T01:12:57.634Z,100.00
2022-11-01T01:15:24.173Z,100.00
2022-11-01T01:17:50.638Z,100.00
2022-11-01T01:20:17.174Z,100.00
2022-11-01T01:22:43.759Z,100.00
2022-11-01T01:25:10.830Z,100.00
2022-11-01T01:27:37.730Z,100.00
2022-11-01T01:30:07.639Z,100.00
2022-11-01T01:32:34.765Z,100.00
2022-11-01T01:35:01.481Z,100.00
2022-11-01T01:37:28.070Z,100.00
2022-11-01T01:39:54.598Z,100.00
2022-11-01T01:42:30.614Z,100.00
2022-11-01T01:44:57.043Z,100.00
2022-11-01T01:47:23.446Z,100.00
2022-11-01T01:52:28.708Z,100.00
2022-11-01T01:54:55.702Z,100.00
2022-11-01T01:57:22.263Z,100.00
2022-11-01T01:59:48.791Z,100.00
2022-11-01T02:02:17.194Z,100.00
2022-11-01T02:04:53.086Z,100.00
2022-11-01T02:07:19.587Z,100.00
2022-11-01T02:09:46.418Z,100.00
2022-11-01T02:12:14.415Z,100.00
2022-11-01T02:14:43.301Z,100.00
2022-11-01T02:17:41.458Z,100.00
2022-11-01T02:20:43.063Z,100.00
2022-11-01T02:23:51.493Z,100.00
2022-11-01T02:26:30.278Z,100.00
2022-11-01T02:29:03.149Z,100.00
2022-11-01T02:32:00.621Z,100.00
2022-11-01T02:34:41.951Z,100.00
2022-11-01T02:37:18.358Z,100.00
2022-11-01T02:39:52.613Z,100.00
2022-11-01T02:42:25.961Z,100.00
2022-11-01T02:45:03.278Z,100.00
2022-11-01T02:47:32.704Z,100.00
2022-11-01T02:50:03.105Z,100.00
2022-11-01T02:52:34.212Z,100.00
2022-11-01T02:55:27.106Z,100.00
2022-11-01T02:57:55.088Z,100.00
2022-11-01T03:00:25.999Z,100.00
2022-11-01T03:03:28.494Z,100.00
2022-11-01T03:06:01.006Z,100.00
2022-11-01T03:08:42.098Z,100.00
2022-11-01T03:11:08.476Z,100.00
2022-11-01T03:13:44.088Z,100.00
2022-11-01T03:16:17.308Z,100.00
2022-11-01T03:19:25.727Z,100.00
2022-11-01T03:21:59.308Z,100.00
2022-11-01T03:24:40.610Z,100.00
2022-11-01T03:27:19.335Z,100.00
2022-11-01T03:29:56.396Z,100.00
2022-11-01T03:32:27.442Z,100.00
2022-11-01T03:34:55.311Z,100.00
2022-11-01T03:37:22.559Z,100.00
2022-11-01T03:39:52.030Z,100.00
2022-11-01T03:42:23.487Z,100.00
2022-11-01T03:44:56.022Z,100.00
2022-11-01T03:47:22.572Z,100.00
2022-11-01T03:50:19.738Z,100.00
2022-11-01T03:52:46.894Z,100.00
2022-11-01T03:55:18.512Z,100.00
2022-11-01T03:58:00.147Z,100.00
2022-11-01T04:00:33.510Z,100.00
2022-11-01T04:03:00.925Z,100.00
2022-11-01T04:05:30.115Z,100.00
2022-11-01T04:07:56.604Z,100.00
2022-11-01T04:10:24.857Z,100.00
2022-11-01T04:12:52.210Z,100.00
2022-11-01T04:15:38.935Z,100.00
2022-11-01T04:18:31.827Z,100.00
2022-11-01T04:20:58.823Z,100.00
2022-11-01T04:23:25.318Z,100.00
2022-11-01T04:25:51.869Z,100.00
2022-11-01T04:28:18.452Z,100.00
2022-11-01T04:30:45.062Z,100.00
2022-11-01T04:33:11.594Z,100.00
2022-11-01T04:35:38.479Z,100.00
2022-11-01T04:38:06.536Z,100.00
2022-11-01T04:40:34.369Z,100.00
2022-11-01T04:43:01.350Z,100.00
2022-11-01T04:45:28.195Z,100.00
2022-11-01T04:48:03.293Z,100.00
2022-11-01T04:50:30.242Z,100.00
2022-11-01T04:52:58.673Z,100.00
2022-11-01T04:55:26.376Z,100.00
2022-11-01T04:57:52.873Z,100.00
2022-11-01T05:00:19.524Z,100.00
2022-11-01T05:02:45.960Z,100.00
2022-11-01T05:05:12.827Z,100.00
2022-11-01T05:07:39.574Z,100.00
2022-11-01T05:10:07.494Z,100.00
2022-11-01T05:12:33.968Z,100.00
2022-11-01T05:15:00.438Z,100.00
2022-11-01T05:17:26.936Z,100.00
2022-11-01T05:19:53.414Z,100.00
2022-11-01T05:22:19.837Z,100.00
2022-11-01T05:24:46.356Z,100.00
2022-11-01T05:27:12.847Z,100.00
2022-11-01T05:29:39.378Z,100.00
2022-11-01T05:32:05.930Z,100.00
2022-11-01T05:34:32.502Z,100.00
2022-11-01T05:36:59.014Z,100.00
2022-11-01T05:39:25.505Z,100.00
2022-11-01T05:41:51.966Z,100.00
2022-11-01T05:44:18.394Z,100.00
2022-11-01T05:46:44.857Z,100.00
2022-11-01T05:49:11.301Z,100.00
2022-11-01T05:51:39.211Z,100.00
2022-11-01T05:54:05.828Z,100.00
2022-11-01T05:56:32.268Z,100.00
2022-11-01T05:58:58.770Z,100.00
2022-11-01T06:01:25.914Z,100.00
2022-11-01T06:03:52.470Z,100.00
2022-11-01T06:06:18.977Z,100.00
2022-11-01T06:08:45.446Z,100.00
2022-11-01T06:11:12.480Z,100.00
2022-11-01T06:13:39.050Z,100.00
2022-11-01T06:16:06.375Z,100.00
2022-11-01T06:18:34.913Z,100.00
2022-11-01T06:21:01.480Z,100.00
2022-11-01T06:23:27.985Z,100.00
2022-11-01T06:26:04.734Z,100.00
2022-11-01T06:28:31.241Z,100.00
2022-11-01T06:31:02.683Z,100.00
2022-11-01T06:33:30.191Z,100.00
2022-11-01T06:35:56.755Z,100.00
2022-11-01T06:38:23.610Z,100.00
2022-11-01T06:40:50.098Z,100.00
2022-11-01T06:43:16.587Z,100.00
2022-11-01T06:45:43.760Z,100.00
2022-11-01T06:48:10.457Z,100.00
2022-11-01T06:50:37.151Z,100.00
2022-11-01T06:53:03.976Z,100.00
2022-11-01T06:55:30.849Z,100.00
2022-11-01T06:57:59.873Z,100.00
2022-11-01T07:00:28.658Z,100.00
2022-11-01T07:03:00.421Z,100.00
2022-11-01T07:05:30.376Z,100.00
2022-11-01T07:08:01.426Z,100.00
2022-11-01T07:10:29.167Z,100.00
2022-11-01T07:13:04.292Z,100.00
2022-11-01T07:15:31.214Z,100.00
2022-11-01T07:17:59.545Z,100.00
2022-11-01T07:20:27.444Z,100.00
2022-11-01T07:23:05.903Z,100.00
2022-11-01T07:25:33.300Z,100.00
2022-11-01T07:27:59.956Z,100.00
2022-11-01T07:30:28.011Z,100.00
2022-11-01T07:32:56.386Z,100.00
2022-11-01T07:35:23.459Z,100.00
2022-11-01T07:37:50.006Z,100.00
2022-11-01T07:40:17.108Z,100.00
2022-11-01T07:42:45.106Z,100.00
2022-11-01T07:45:13.496Z,100.00
2022-11-01T07:47:40.251Z,100.00
2022-11-01T07:50:07.378Z,100.00
2022-11-01T07:52:33.978Z,100.00
2022-11-01T07:55:00.518Z,100.00
2022-11-01T07:57:27.181Z,100.00
2022-11-01T07:59:53.692Z,100.00
2022-11-01T08:02:20.335Z,100.00
2022-11-01T08:04:46.954Z,99.77
2022-11-01T08:07:13.460Z,99.67
2022-11-01T08:09:40.081Z,99.47
2022-11-01T08:12:06.891Z,99.20
2022-11-01T08:14:33.310Z,98.38
2022-11-01T08:17:01.873Z,97.97
2022-11-01T08:19:28.535Z,97.84
2022-11-01T08:21:58.440Z,97.96
2022-11-01T08:24:24.991Z,96.08
2022-11-01T08:26:52.655Z,96.36
2022-11-01T08:29:19.795Z,96.23
2022-11-01T08:31:47.523Z,97.14
2022-11-01T08:34:16.902Z,96.40
2022-11-01T08:36:43.697Z,95.92
2022-11-01T08:41:41.802Z,95.12
2022-11-01T08:44:08.321Z,94.62
2022-11-01T08:46:34.814Z,93.67
2022-11-01T08:49:01.291Z,92.97
2022-11-01T08:51:27.886Z,92.10
2022-11-01T08:53:57.634Z,92.09
2022-11-01T08:56:27.793Z,92.09
2022-11-01T08:58:55.458Z,91.08
2022-11-01T09:04:16.330Z,92.09
2022-11-01T09:06:43.629Z,91.10
2022-11-01T09:09:12.750Z,91.34
2022-11-01T09:11:39.523Z,90.72
2022-11-01T09:14:06.050Z,90.22
2022-11-01T09:16:33.220Z,90.27
2022-11-01T09:19:01.767Z,90.19
2022-11-01T09:21:31.801Z,89.91
2022-11-01T09:23:59.218Z,88.99
2022-11-01T09:26:28.590Z,88.59
2022-11-01T09:28:58.347Z,87.15
2022-11-01T09:31:24.887Z,88.84
2022-11-01T09:33:54.149Z,88.27
2022-11-01T09:36:21.237Z,87.58
2022-11-01T09:38:47.699Z,86.94
2022-11-01T09:41:55.721Z,85.17
2022-11-01T09:44:34.018Z,84.33
2022-11-01T09:47:07.945Z,83.64
2022-11-01T09:49:41.506Z,83.49
2022-11-01T09:52:18.407Z,83.34
2022-11-01T09:54:44.991Z,82.18
2022-11-01T09:57:40.640Z,81.72
2022-11-01T10:00:07.628Z,81.47
2022-11-01T10:02:58.214Z,81.74
2022-11-01T10:05:48.484Z,82.77
2022-11-01T10:08:34.154Z,81.44
2022-11-01T10:11:36.116Z,80.78
2022-11-01T10:14:16.258Z,81.43
2022-11-01T10:17:04.905Z,81.40
2022-11-01T10:19:33.972Z,80.04
2022-11-01T10:22:06.830Z,80.02
2022-11-01T10:24:57.601Z,80.93
2022-11-01T10:27:43.005Z,80.07
2022-11-01T10:30:16.144Z,78.74
2022-11-01T10:33:02.525Z,78.42
2022-11-01T10:35:34.998Z,78.19
2022-11-01T10:38:38.067Z,77.69
2022-11-01T10:41:15.789Z,77.80
2022-11-01T10:43:47.482Z,76.92
2022-11-01T10:46:19.853Z,75.86
2022-11-01T10:48:55.319Z,75.58
2022-11-01T10:51:27.778Z,75.86
2022-11-01T10:54:00.480Z,74.29
2022-11-01T10:56:37.266Z,74.75
2022-11-01T10:59:09.987Z,74.16
2022-11-01T11:01:42.532Z,74.90
2022-11-01T11:04:14.416Z,72.71
2022-11-01T11:06:44.136Z,72.44
2022-11-01T11:09:37.355Z,73.19
2022-11-01T11:12:09.809Z,72.67
2022-11-01T11:14:37.629Z,70.97
2022-11-01T11:17:39.488Z,71.04
2022-11-01T11:20:12.978Z,72.80
2022-11-01T11:22:42.852Z,71.07
2022-11-01T11:25:17.808Z,73.04
2022-11-01T11:27:47.678Z,71.97
2022-11-01T11:30:30.173Z,72.42
2022-11-01T11:32:58.634Z,72.28
2022-11-01T11:35:28.382Z,72.84
2022-11-01T11:38:05.002Z,73.56
2022-11-01T11:40:41.146Z,74.63
2022-11-01T11:43:33.740Z,74.11
2022-11-01T11:46:13.270Z,73.77
2022-11-01T11:48:52.237Z,72.32
2022-11-01T11:51:23.106Z,72.36
2022-11-01T11:54:32.311Z,74.07
2022-11-01T11:57:22.890Z,73.82
2022-11-01T11:59:59.462Z,74.19
2022-11-01T12:02:34.677Z,74.59
2022-11-01T12:05:23.712Z,75.19
2022-11-01T12:07:53.094Z,75.39
2022-11-01T12:10:45.530Z,75.27
2022-11-01T12:13:27.282Z,75.84
2022-11-01T12:16:20.340Z,76.65
2022-11-01T12:18:48.135Z,76.87
2022-11-01T12:21:22.746Z,78.13
2022-11-01T12:23:53.696Z,78.31
2022-11-01T12:26:23.632Z,78.97
2022-11-01T12:29:31.796Z,79.97
2022-11-01T12:32:06.409Z,80.40
2022-11-01T12:34:39.779Z,80.46
2022-11-01T12:37:26.284Z,80.72
2022-11-01T12:40:05.456Z,80.84
2022-11-01T12:42:41.226Z,80.66
2022-11-01T12:45:19.563Z,80.13
2022-11-01T12:47:52.394Z,80.12
2022-11-01T12:50:24.721Z,79.72
2022-11-01T12:52:58.594Z,80.41
2022-11-01T12:55:45.344Z,80.33
2022-11-01T12:58:18.757Z,80.56
2022-11-01T13:01:12.718Z,80.20
2022-11-01T13:04:05.185Z,80.06
2022-11-01T13:06:56.104Z,81.27
2022-11-01T13:09:51.874Z,80.80
2022-11-01T13:12:51.468Z,81.36
2022-11-01T13:15:27.400Z,80.31
2022-11-01T13:18:00.778Z,80.75
2022-11-01T13:20:42.869Z,81.41
2022-11-01T13:23:23.619Z,80.90
2022-11-01T13:26:12.893Z,80.57
2022-11-01T13:28:39.323Z,79.98
2022-11-01T13:31:26.449Z,78.72
2022-11-01T13:34:16.173Z,79.98
2022-11-01T13:37:05.275Z,80.26
2022-11-01T13:39:44.348Z,79.66
2022-11-01T13:42:16.289Z,80.48
2022-11-01T13:44:48.985Z,79.54
2022-11-01T13:47:30.651Z,79.11
2022-11-01T13:50:16.988Z,79.28
2022-11-01T13:52:55.643Z,80.05
2022-11-01T13:55:39.025Z,78.59
2022-11-01T13:58:06.853Z,78.68
2022-11-01T14:00:39.321Z,77.92
2022-11-01T14:03:35.651Z,78.65
2022-11-01T14:06:11.241Z,79.27
2022-11-01T14:08:42.431Z,79.54
2022-11-01T14:11:32.766Z,78.54
2022-11-01T14:13:59.536Z,78.96
2022-11-01T14:16:28.026Z,79.82
2022-11-01T14:19:03.808Z,79.99
2022-11-01T14:21:39.971Z,80.59
2022-11-01T14:24:07.717Z,80.79
2022-11-01T14:26:36.944Z,81.04
2022-11-01T14:29:09.784Z,81.95
2022-11-01T14:31:37.102Z,82.07
2022-11-01T14:34:10.073Z,82.64
2022-11-01T14:36:41.659Z,82.43
2022-11-01T14:39:18.237Z,83.17
2022-11-01T14:41:50.183Z,83.38
2022-11-01T14:44:43.537Z,83.71
2022-11-01T14:47:27.575Z,83.80
2022-11-01T14:49:59.021Z,84.17
2022-11-01T14:52:35.879Z,84.41
2022-11-01T14:55:24.975Z,84.17
2022-11-01T14:58:06.763Z,84.04
2022-11-01T15:00:33.312Z,83.53
2022-11-01T15:03:04.625Z,84.04
2022-11-01T15:05:31.201Z,84.30
2022-11-01T15:07:59.409Z,84.54
2022-11-01T15:10:27.400Z,83.89
2022-11-01T15:12:58.095Z,84.29
2022-11-01T15:15:27.944Z,84.46
2022-11-01T15:21:47.157Z,84.96
2022-11-01T15:24:26.001Z,85.27
2022-11-01T15:26:53.733Z,85.58
2022-11-01T15:29:23.510Z,85.92
2022-11-01T15:32:01.464Z,86.79
2022-11-01T15:34:30.416Z,87.17
2022-11-01T15:36:58.487Z,87.09
2022-11-01T15:39:29.507Z,87.71
2022-11-01T15:41:57.015Z,87.54
2022-11-01T15:44:46.270Z,87.89
2022-11-01T15:47:20.572Z,88.25
2022-11-01T15:50:06.658Z,88.69
2022-11-01T15:52:35.697Z,88.96
2022-11-01T15:55:17.218Z,89.50
2022-11-01T15:57:52.219Z,89.51
2022-11-01T16:00:22.363Z,89.84
2022-11-01T16:11:39.200Z,90.67
2022-11-01T16:14:18.750Z,91.34
2022-11-01T16:16:56.508Z,91.41
2022-11-01T16:19:27.939Z,91.69
2022-11-01T16:21:54.477Z,92.03
2022-11-01T16:24:21.932Z,92.64
2022-11-01T16:27:12.171Z,92.69
2022-11-01T16:29:42.669Z,93.00
2022-11-01T16:32:27.514Z,93.57
2022-11-01T16:34:55.528Z,92.99
2022-11-01T16:37:24.807Z,93.19
2022-11-01T16:39:52.354Z,93.35
2022-11-01T16:42:19.502Z,93.90
2022-11-01T16:44:49.453Z,94.22
2022-11-01T16:47:17.181Z,94.11
2022-11-01T16:49:52.514Z,94.27
2022-11-01T16:52:19.297Z,94.35
2022-11-01T16:54:51.216Z,94.24
2022-11-01T16:57:25.925Z,94.55
2022-11-01T16:59:54.568Z,94.70
2022-11-01T17:02:23.131Z,94.85
2022-11-01T17:04:56.388Z,94.99
2022-11-01T17:07:27.859Z,94.87
2022-11-01T17:09:54.517Z,95.09
2022-11-01T17:12:21.677Z,95.38
2022-11-01T17:14:48.801Z,95.10
2022-11-01T17:17:19.159Z,95.34
2022-11-01T17:19:50.170Z,95.60
2022-11-01T17:22:23.115Z,95.58
2022-11-01T17:24:49.734Z,95.64
2022-11-01T17:27:18.646Z,95.89
2022-11-01T17:29:45.126Z,95.97
2022-11-01T17:32:12.483Z,96.01
2022-11-01T17:34:39.301Z,96.08
2022-11-01T17:37:06.388Z,96.16
2022-11-01T17:39:33.033Z,96.17
2022-11-01T17:41:59.500Z,95.89
2022-11-01T17:44:26.096Z,96.10
2022-11-01T17:46:52.972Z,96.23
2022-11-01T17:49:21.709Z,96.32
2022-11-01T17:51:53.281Z,96.54
2022-11-01T17:54:22.183Z,96.61
2022-11-01T17:56:50.476Z,96.69
2022-11-01T18:09:48.237Z,96.92
2022-11-01T18:12:37.644Z,96.80
2022-11-01T18:15:15.410Z,96.49
2022-11-01T18:18:05.743Z,96.74
2022-11-01T18:20:52.878Z,96.67
2022-11-01T18:23:22.810Z,96.64
2022-11-01T18:25:50.781Z,96.36
2022-11-01T18:28:19.578Z,96.94
2022-11-01T18:30:51.087Z,96.86
2022-11-01T18:33:32.847Z,97.27
2022-11-01T18:36:06.400Z,97.22
2022-11-01T18:38:40.185Z,97.45
2022-11-01T18:41:13.104Z,97.44
2022-11-01T18:43:40.669Z,97.33
2022-11-01T18:46:27.664Z,97.30
2022-11-01T18:48:59.956Z,97.34
2022-11-01T18:51:29.659Z,97.46
2022-11-01T18:54:09.796Z,97.44
2022-11-01T18:56:51.822Z,97.65
2022-11-01T18:59:31.416Z,97.27
2022-11-01T19:02:12.517Z,97.23
2022-11-01T19:04:42.401Z,97.38
2022-11-01T19:07:14.956Z,97.64
2022-11-01T19:09:45.639Z,97.79
2022-11-01T19:12:17.560Z,97.70
2022-11-01T19:14:57.544Z,97.49
2022-11-01T19:17:27.082Z,97.47
2022-11-01T19:19:54.740Z,97.64
2022-11-01T19:22:33.082Z,97.92
2022-11-01T19:25:01.674Z,97.74
2022-11-01T19:27:28.794Z,97.59
2022-11-01T19:29:58.261Z,97.48
2022-11-01T19:32:26.092Z,97.13
2022-11-01T19:34:52.992Z,97.48
2022-11-01T19:37:25.453Z,97.11
2022-11-01T19:39:56.220Z,97.04
2022-11-01T19:42:26.424Z,96.97
2022-11-01T19:44:58.251Z,96.89
2022-11-01T19:47:27.917Z,96.94
2022-11-01T19:49:59.439Z,96.97
2022-11-01T19:52:36.291Z,96.94
2022-11-01T19:55:27.854Z,97.12
2022-11-01T19:57:54.335Z,97.07
2022-11-01T20:00:22.749Z,97.24
2022-11-01T20:02:52.111Z,97.02
2022-11-01T20:05:34.627Z,97.12
2022-11-01T20:08:21.880Z,97.18
2022-11-01T20:10:48.542Z,97.33
2022-11-01T20:13:15.120Z,97.66
2022-11-01T20:15:42.117Z,97.39
2022-11-01T20:18:08.903Z,97.52
2022-11-01T20:20:35.760Z,97.25
2022-11-01T20:23:24.610Z,97.26
2022-11-01T20:25:48.865Z,97.39
2022-11-01T20:28:15.303Z,97.39
2022-11-01T20:30:41.786Z,97.52
2022-11-01T20:33:08.274Z,97.27
2022-11-01T20:35:34.772Z,97.54
2022-11-01T20:38:01.227Z,97.57
2022-11-01T20:40:28.000Z,97.42
2022-11-01T20:42:54.747Z,97.34
2022-11-01T20:45:21.288Z,97.25
2022-11-01T20:47:47.730Z,97.57
2022-11-01T20:50:16.258Z,97.49
2022-11-01T20:52:43.477Z,97.40
2022-11-01T20:55:11.829Z,97.53
2022-11-01T20:57:38.886Z,97.08
2022-11-01T21:00:06.787Z,97.31
2022-11-01T21:02:33.288Z,97.44
2022-11-01T21:05:02.884Z,97.42
2022-11-01T21:07:31.170Z,97.40
2022-11-01T21:09:57.772Z,97.40
2022-11-01T21:12:47.655Z,97.42
2022-11-01T21:15:26.324Z,97.39
2022-11-01T21:18:01.422Z,97.40
2022-11-01T21:20:28.255Z,97.49
2022-11-01T21:23:16.409Z,97.39
2022-11-01T21:25:46.401Z,97.73
2022-11-01T21:28:35.392Z,97.49
2022-11-01T21:31:26.975Z,97.70
2022-11-01T21:34:24.507Z,97.59
2022-11-01T21:36:52.134Z,97.69
2022-11-01T21:39:28.756Z,97.64
2022-11-01T21:42:27.300Z,97.73
2022-11-01T21:44:55.857Z,97.84
2022-11-01T21:47:24.979Z,97.82
2022-11-01T21:49:51.874Z,97.86
2022-11-01T21:52:21.258Z,97.67
2022-11-01T21:54:48.350Z,97.67
2022-11-01T21:57:16.024Z,97.40
2022-11-01T21:59:43.178Z,97.24
2022-11-01T22:02:12.357Z,97.34
2022-11-01T22:04:39.144Z,97.05
2022-11-01T22:07:07.670Z,97.44
2022-11-01T22:09:34.746Z,97.44
2022-11-01T22:12:01.374Z,97.46
2022-11-01T22:14:28.060Z,97.49
2022-11-01T22:16:54.529Z,97.34
2022-11-01T22:19:21.162Z,97.27
2022-11-01T22:21:47.664Z,96.80
2022-11-01T22:24:14.203Z,96.63
2022-11-01T22:26:40.666Z,96.37
2022-11-01T22:29:07.092Z,96.44
2022-11-01T22:31:33.604Z,96.62
2022-11-01T22:34:01.322Z,96.81
2022-11-01T22:36:34.683Z,96.74
2022-11-01T22:39:06.629Z,96.77
2022-11-01T22:41:35.124Z,96.74
2022-11-01T22:44:04.357Z,96.99
2022-11-01T22:46:59.231Z,96.81
2022-11-01T22:49:49.529Z,97.09
2022-11-01T22:52:29.593Z,96.91
2022-11-01T22:55:11.395Z,97.20
2022-11-01T22:57:48.410Z,97.06
2022-11-01T23:00:31.549Z,97.19
2022-11-01T23:03:19.692Z,97.16
2022-11-01T23:05:46.894Z,97.38
2022-11-01T23:08:33.282Z,97.69
2022-11-01T23:11:00.938Z,97.99
2022-11-01T23:13:50.106Z,97.97
2022-11-01T23:16:24.842Z,98.30
2022-11-01T23:18:53.129Z,98.33
2022-11-01T23:21:21.442Z,98.14
2022-11-01T23:23:48.496Z,98.12
2022-11-01T23:26:17.582Z,97.83
2022-11-01T23:28:47.235Z,98.02
2022-11-01T23:31:14.146Z,97.84
2022-11-01T23:33:48.641Z,97.97
2022-11-01T23:36:36.391Z,97.84
2022-11-01T23:39:04.460Z,97.89
2022-11-01T23:41:36.915Z,97.80
2022-11-01T23:44:16.579Z,97.84
2022-11-01T23:46:43.142Z,97.91
2022-11-01T23:49:18.070Z,97.69
2022-11-01T23:51:45.013Z,97.99
2022-11-01T23:54:22.229Z,97.79
2022-11-01T23:56:48.673Z,97.75
2022-11-01T23:59:15.815Z,97.94
